Time;durP1;ratioP1;P1;durP2;ratioP2;P2;SDS_P1;SDS_P2;PMS_P1;PMS_P2;Temp;Humidity;BMP_temperature;BMP_pressure;BME280_temperature;BME280_humidity;BME280_pressure;Samples;Min_cycle;Max_cycle;Signal;HPM_P1;HPM_P2
2022/04/16 00:00:55;;;;;;;0.30;0.30;;;11.50;86.90;;;;;;5054087;28;20412;-69
2022/04/16 00:03:22;;;;;;;0.30;0.30;;;11.60;87.50;;;;;;5054111;28;20619;-69
2022/04/16 00:05:53;;;;;;;0.30;0.30;;;11.60;87.60;;;;;;5052792;28;20218;-69
2022/04/16 00:08:24;;;;;;;0.30;0.30;;;11.40;88.10;;;;;;5054073;28;20236;-69
2022/04/16 00:10:49;;;;;;;0.30;0.30;;;11.50;88.40;;;;;;5053618;28;20206;-69
2022/04/16 00:13:17;;;;;;;0.30;0.30;;;11.50;87.30;;;;;;5053878;28;20251;-69
2022/04/16 00:15:46;;;;;;;0.30;0.30;;;11.50;88.60;;;;;;5053897;28;20401;-68
2022/04/16 00:18:13;;;;;;;0.30;0.30;;;11.50;89.50;;;;;;5053956;28;20190;-69
2022/04/16 00:20:40;;;;;;;0.43;0.43;;;11.40;89.90;;;;;;5053609;28;20180;-69
2022/04/16 00:23:07;;;;;;;0.30;0.30;;;11.30;90.30;;;;;;5053796;28;20193;-69
2022/04/16 00:25:34;;;;;;;0.30;0.30;;;11.30;91.10;;;;;;5054114;28;20177;-69
2022/04/16 00:28:01;;;;;;;0.30;0.30;;;11.20;91.60;;;;;;5053899;28;20263;-69
2022/04/16 00:30:27;;;;;;;0.30;0.30;;;11.10;92.10;;;;;;5053382;28;20666;-69
2022/04/16 00:32:55;;;;;;;0.30;0.30;;;11.10;92.50;;;;;;5053910;28;20209;-69
2022/04/16 00:35:23;;;;;;;0.30;0.30;;;11.00;92.80;;;;;;5053786;28;20525;-69
2022/04/16 00:37:48;;;;;;;0.30;0.30;;;11.10;92.80;;;;;;5053568;28;20269;-68
2022/04/16 00:40:14;;;;;;;0.30;0.30;;;11.00;92.90;;;;;;5052024;28;20185;-69
2022/04/16 00:42:44;;;;;;;0.40;0.40;;;11.10;92.90;;;;;;5053701;28;20220;-69
2022/04/16 00:45:11;;;;;;;0.30;0.30;;;11.00;92.90;;;;;;5053489;28;20754;-69
2022/04/16 00:47:36;;;;;;;0.30;0.30;;;11.00;92.60;;;;;;5053476;28;20532;-69
2022/04/16 00:50:08;;;;;;;0.30;0.30;;;11.10;92.60;;;;;;5053137;28;20219;-69
2022/04/16 00:52:34;;;;;;;0.88;0.88;;;11.00;92.60;;;;;;5053761;28;20176;-69
2022/04/16 00:55:00;;;;;;;0.75;0.75;;;11.00;92.80;;;;;;5053529;28;20561;-69
2022/04/16 00:57:26;;;;;;;0.30;0.30;;;11.00;92.10;;;;;;5053263;28;20250;-69
2022/04/16 00:59:53;;;;;;;0.30;0.30;;;11.00;92.00;;;;;;5055139;28;20166;-69
2022/04/16 01:02:19;;;;;;;0.30;0.30;;;11.00;92.20;;;;;;5057586;28;20170;-69
2022/04/16 01:04:44;;;;;;;0.30;0.30;;;11.00;92.10;;;;;;5057618;28;20666;-69
2022/04/16 01:07:10;;;;;;;0.30;0.30;;;11.00;91.80;;;;;;5057680;28;20567;-69
2022/04/16 01:09:36;;;;;;;0.30;0.30;;;10.90;92.00;;;;;;5057204;28;20193;-69
2022/04/16 01:12:02;;;;;;;0.30;0.30;;;10.80;91.70;;;;;;5057136;28;20253;-69
2022/04/16 01:14:29;;;;;;;0.30;0.30;;;10.80;91.70;;;;;;5057232;28;20216;-69
2022/04/16 01:16:56;;;;;;;0.30;0.30;;;10.70;91.90;;;;;;5057126;28;20844;-69
2022/04/16 01:19:22;;;;;;;0.30;0.30;;;10.60;92.50;;;;;;5057825;28;20170;-69
2022/04/16 01:21:48;;;;;;;0.30;0.30;;;10.60;92.50;;;;;;5056794;28;20582;-69
2022/04/16 01:24:14;;;;;;;0.30;0.30;;;10.50;92.50;;;;;;5057214;28;20178;-69
2022/04/16 01:26:43;;;;;;;0.30;0.30;;;10.50;92.40;;;;;;5057070;28;20514;-68
2022/04/16 01:29:10;;;;;;;0.30;0.30;;;10.50;92.60;;;;;;5056831;28;20456;-69
2022/04/16 01:31:36;;;;;;;0.30;0.30;;;10.30;93.30;;;;;;5056852;28;20174;-68
2022/04/16 01:34:01;;;;;;;0.30;0.30;;;10.10;93.40;;;;;;5056949;28;20232;-68
2022/04/16 01:36:31;;;;;;;0.30;0.30;;;10.00;93.80;;;;;;5056815;28;20170;-69
2022/04/16 01:38:58;;;;;;;0.40;0.40;;;10.00;93.70;;;;;;5056862;28;20702;-69
2022/04/16 01:41:27;;;;;;;0.30;0.30;;;10.00;93.90;;;;;;5056750;28;20260;-69
2022/04/16 01:43:54;;;;;;;0.98;0.98;;;9.90;95.10;;;;;;5056738;28;20654;-69
2022/04/16 01:46:19;;;;;;;0.35;0.35;;;9.80;95.10;;;;;;5056807;28;20178;-68
2022/04/16 01:48:46;;;;;;;0.30;0.30;;;9.70;95.30;;;;;;5056452;28;20193;-69
2022/04/16 01:51:11;;;;;;;0.30;0.30;;;9.60;95.30;;;;;;5056412;28;20174;-68
2022/04/16 01:53:37;;;;;;;0.30;0.30;;;9.60;95.50;;;;;;5055300;28;20178;-69
2022/04/16 01:56:03;;;;;;;0.30;0.30;;;9.50;95.70;;;;;;5056538;28;20170;-68
2022/04/16 01:58:31;;;;;;;0.30;0.30;;;9.50;95.90;;;;;;5056429;28;20925;-69
2022/04/16 02:00:56;;;;;;;0.30;0.30;;;9.50;95.80;;;;;;5056154;28;20432;-69
2022/04/16 02:03:22;;;;;;;0.30;0.30;;;9.50;95.80;;;;;;5056469;28;20197;-69
2022/04/16 02:05:48;;;;;;;0.30;0.30;;;9.40;95.80;;;;;;5056294;28;20180;-69
2022/04/16 02:08:14;;;;;;;0.30;0.30;;;9.40;96.20;;;;;;5056189;28;20197;-69
2022/04/16 02:10:39;;;;;;;0.30;0.30;;;9.50;96.00;;;;;;5054841;28;20792;-69
2022/04/16 02:13:05;;;;;;;0.30;0.30;;;9.40;96.00;;;;;;5056214;28;20174;-69
2022/04/16 02:15:30;;;;;;;0.30;0.30;;;9.30;96.20;;;;;;5056299;28;20527;-69
2022/04/16 02:17:56;;;;;;;0.30;0.30;;;9.30;96.40;;;;;;5056076;28;20194;-69
2022/04/16 02:20:23;;;;;;;0.30;0.30;;;9.20;96.40;;;;;;5055855;28;20591;-69
2022/04/16 02:22:49;;;;;;;0.40;0.40;;;9.30;96.70;;;;;;5055890;28;20279;-69
2022/04/16 02:25:17;;;;;;;0.40;0.40;;;9.20;96.60;;;;;;5056132;28;20177;-69
2022/04/16 02:27:42;;;;;;;0.30;0.30;;;9.20;96.60;;;;;;5055992;28;20446;-69
2022/04/16 02:30:10;;;;;;;0.40;0.40;;;9.10;96.90;;;;;;5055604;28;20198;-69
2022/04/16 02:32:42;;;;;;;0.30;0.30;;;9.00;96.70;;;;;;5056185;28;20403;-69
2022/04/16 02:35:09;;;;;;;0.30;0.30;;;9.00;96.70;;;;;;5056145;28;20173;-69
2022/04/16 02:37:35;;;;;;;0.30;0.30;;;9.00;96.80;;;;;;5055575;28;20192;-69
2022/04/16 02:40:02;;;;;;;0.30;0.30;;;9.10;96.70;;;;;;5055428;28;20171;-69
2022/04/16 02:42:28;;;;;;;0.30;0.30;;;8.90;96.90;;;;;;5055770;28;20265;-69
2022/04/16 02:47:38;;;;;;;0.57;0.57;;;8.90;97.20;;;;;;5055467;28;20726;-69
2022/04/16 02:50:04;;;;;;;0.30;0.30;;;8.90;97.20;;;;;;5055193;28;20206;-69
2022/04/16 02:52:37;;;;;;;0.30;0.30;;;8.80;97.30;;;;;;5055474;28;20231;-69
2022/04/16 02:55:04;;;;;;;0.30;0.30;;;8.80;97.60;;;;;;5055601;28;20177;-69
2022/04/16 02:57:33;;;;;;;0.30;0.30;;;8.70;97.50;;;;;;5055424;28;20231;-69
2022/04/16 02:59:59;;;;;;;0.77;0.77;;;8.70;97.70;;;;;;5055089;28;20208;-69
2022/04/16 03:02:25;;;;;;;0.30;0.30;;;8.60;97.70;;;;;;5055442;28;20200;-69
2022/04/16 03:04:50;;;;;;;0.30;0.30;;;8.70;98.20;;;;;;5055315;28;20457;-69
2022/04/16 03:07:17;;;;;;;0.30;0.30;;;8.70;98.20;;;;;;5055090;28;20272;-69
2022/04/16 03:09:43;;;;;;;0.30;0.30;;;8.70;98.10;;;;;;5054965;28;20204;-69
2022/04/16 03:12:09;;;;;;;0.30;0.30;;;8.70;98.20;;;;;;5054965;28;20181;-69
2022/04/16 03:17:35;;;;;;;0.30;0.30;;;8.70;98.40;;;;;;5054842;28;20197;-69
2022/04/16 03:20:04;;;;;;;0.30;0.30;;;8.70;98.50;;;;;;5054747;28;20571;-69
2022/04/16 03:22:32;;;;;;;0.30;0.30;;;8.70;98.50;;;;;;5054540;28;20197;-69
2022/04/16 03:24:58;;;;;;;0.40;0.40;;;8.80;98.50;;;;;;5054708;28;20169;-68
2022/04/16 03:27:23;;;;;;;0.30;0.30;;;8.80;98.30;;;;;;5054674;28;20275;-69
2022/04/16 03:29:49;;;;;;;0.30;0.30;;;8.80;98.50;;;;;;5054471;28;20459;-68
2022/04/16 03:32:14;;;;;;;0.30;0.30;;;8.90;98.40;;;;;;5054746;28;20351;-68
2022/04/16 03:34:40;;;;;;;0.40;0.40;;;8.90;98.10;;;;;;5054772;28;20507;-69
2022/04/16 03:37:06;;;;;;;0.40;0.40;;;8.90;98.00;;;;;;5054578;28;20255;-68
2022/04/16 03:39:32;;;;;;;0.30;0.30;;;8.90;98.00;;;;;;5054657;28;20227;-69
2022/04/16 03:41:58;;;;;;;0.30;0.30;;;8.80;97.70;;;;;;5054294;28;20512;-69
2022/04/16 03:44:23;;;;;;;0.30;0.30;;;8.80;97.90;;;;;;5054467;28;20227;-69
2022/04/16 03:46:49;;;;;;;0.30;0.30;;;8.70;98.20;;;;;;5054445;28;20174;-68
2022/04/16 03:49:14;;;;;;;0.30;0.30;;;8.50;98.30;;;;;;5054902;28;20296;-68
2022/04/16 03:51:41;;;;;;;0.30;0.30;;;8.50;98.60;;;;;;5054004;28;20165;-69
2022/04/16 04:02:19;;;;;;;0.40;0.40;;;8.40;98.50;;;;;;5054302;28;20199;-69
2022/04/16 04:04:46;;;;;;;0.30;0.30;;;8.40;98.60;;;;;;5052774;28;20176;-69
2022/04/16 04:07:12;;;;;;;0.30;0.30;;;8.30;98.70;;;;;;5054010;28;20183;-68
2022/04/16 04:09:38;;;;;;;0.30;0.30;;;8.20;98.80;;;;;;5053827;28;20290;-69
2022/04/16 04:12:14;;;;;;;0.30;0.30;;;8.10;98.90;;;;;;5053875;28;20406;-69
2022/04/16 04:14:45;;;;;;;0.30;0.30;;;8.10;99.20;;;;;;5054311;28;20180;-69
2022/04/16 04:17:11;;;;;;;0.30;0.30;;;8.00;99.20;;;;;;5052405;28;20667;-68
2022/04/16 04:19:39;;;;;;;0.40;0.40;;;7.90;99.50;;;;;;5053772;28;20188;-69
2022/04/16 04:22:07;;;;;;;0.30;0.30;;;8.00;99.50;;;;;;5053398;28;20215;-68
2022/04/16 04:24:33;;;;;;;0.30;0.30;;;7.90;99.30;;;;;;5052534;28;20649;-69
2022/04/16 04:27:00;;;;;;;0.40;0.40;;;7.90;99.40;;;;;;5052434;28;20619;-68
2022/04/16 04:29:29;;;;;;;0.30;0.30;;;7.90;99.40;;;;;;5053745;28;20235;-69
2022/04/16 04:31:56;;;;;;;0.30;0.30;;;7.80;99.50;;;;;;5053468;28;20176;-69
2022/04/16 04:34:21;;;;;;;0.30;0.30;;;7.80;99.50;;;;;;5052895;28;20171;-68
2022/04/16 04:36:47;;;;;;;0.90;0.90;;;7.80;99.60;;;;;;5053621;28;20179;-68
2022/04/16 04:39:13;;;;;;;0.30;0.30;;;7.80;99.70;;;;;;5053410;28;20428;-69
2022/04/16 04:41:42;;;;;;;0.40;0.40;;;7.70;99.90;;;;;;5053213;28;20168;-69
2022/04/16 04:44:12;;;;;;;0.40;0.40;;;7.60;99.80;;;;;;5053814;28;20180;-69
2022/04/16 04:46:38;;;;;;;0.40;0.40;;;7.60;99.90;;;;;;5053587;28;20221;-68
2022/04/16 04:49:07;;;;;;;0.30;0.30;;;7.60;99.90;;;;;;5053315;28;20202;-68
2022/04/16 04:51:36;;;;;;;0.30;0.30;;;7.50;99.90;;;;;;5053299;28;20173;-69
2022/04/16 04:54:03;;;;;;;0.30;0.30;;;7.40;99.90;;;;;;5053415;28;20260;-69
2022/04/16 04:56:29;;;;;;;0.30;0.30;;;7.60;99.90;;;;;;5053237;28;20246;-68
2022/04/16 04:58:55;;;;;;;0.40;0.40;;;7.60;99.90;;;;;;5053227;28;20330;-69
2022/04/16 05:01:20;;;;;;;0.30;0.30;;;7.70;99.90;;;;;;5053158;28;20173;-69
2022/04/16 05:03:46;;;;;;;0.30;0.30;;;7.50;99.80;;;;;;5053313;28;20176;-68
2022/04/16 05:06:12;;;;;;;0.33;0.33;;;7.60;99.90;;;;;;5053317;28;20532;-68
2022/04/16 05:08:37;;;;;;;0.30;0.30;;;7.60;99.90;;;;;;5053101;28;20184;-68
2022/04/16 05:11:03;;;;;;;0.30;0.30;;;7.60;99.90;;;;;;5052914;28;20200;-69
2022/04/16 05:13:28;;;;;;;0.30;0.30;;;7.60;99.90;;;;;;5053196;28;20231;-68
2022/04/16 05:15:54;;;;;;;0.40;0.40;;;7.70;99.90;;;;;;5053198;28;20169;-69
2022/04/16 05:18:20;;;;;;;0.30;0.30;;;7.80;99.90;;;;;;5053245;28;20192;-68
2022/04/16 05:20:45;;;;;;;0.40;0.40;;;8.00;99.90;;;;;;5052893;28;20707;-68
2022/04/16 05:23:12;;;;;;;0.30;0.30;;;8.00;99.90;;;;;;5053061;28;20189;-69
2022/04/16 05:25:37;;;;;;;0.30;0.30;;;8.20;99.90;;;;;;5053418;28;20200;-69
2022/04/16 05:28:03;;;;;;;0.40;0.40;;;8.20;99.40;;;;;;5053053;28;20225;-69
2022/04/16 05:30:34;;;;;;;0.30;0.30;;;8.30;99.40;;;;;;5053008;28;20255;-69
2022/04/16 05:33:05;;;;;;;0.30;0.30;;;8.40;99.00;;;;;;5051826;28;20461;-68
2022/04/16 05:35:32;;;;;;;0.30;0.30;;;8.50;98.90;;;;;;5053171;28;20642;-69
2022/04/16 05:37:59;;;;;;;0.30;0.30;;;8.80;99.10;;;;;;5052896;28;20194;-69
2022/04/16 05:40:25;;;;;;;0.30;0.30;;;9.60;99.60;;;;;;5052612;28;20181;-69
2022/04/16 05:42:50;;;;;;;0.30;0.30;;;11.00;96.80;;;;;;5052913;28;20174;-69
2022/04/16 05:45:16;;;;;;;0.30;0.30;;;12.60;94.20;;;;;;5053789;28;20237;-69
2022/04/16 05:47:43;;;;;;;0.30;0.30;;;14.10;89.90;;;;;;5056439;28;20724;-69
2022/04/16 05:50:10;;;;;;;0.30;0.30;;;15.30;85.50;;;;;;5056244;28;20193;-69
2022/04/16 05:52:37;;;;;;;0.40;0.40;;;16.30;81.50;;;;;;5056947;28;20843;-69
2022/04/16 05:55:03;;;;;;;0.30;0.30;;;16.90;76.00;;;;;;5056471;28;20493;-69
2022/04/16 05:57:30;;;;;;;0.30;0.30;;;18.10;70.50;;;;;;5056714;28;20438;-69
2022/04/16 05:59:56;;;;;;;0.40;0.40;;;18.90;68.90;;;;;;5056419;28;20399;-70
2022/04/16 06:02:23;;;;;;;0.30;0.30;;;19.30;63.90;;;;;;5056412;28;20424;-70
2022/04/16 06:04:48;;;;;;;0.30;0.30;;;19.60;61.20;;;;;;5055157;28;20901;-70
2022/04/16 06:07:15;;;;;;;0.40;0.40;;;19.70;59.90;;;;;;5056554;28;20415;-69
2022/04/16 06:09:41;;;;;;;0.40;0.40;;;19.60;58.60;;;;;;5054812;28;20206;-69
2022/04/16 06:12:09;;;;;;;0.70;0.70;;;19.40;58.00;;;;;;5056070;28;20397;-69
2022/04/16 06:14:35;;;;;;;0.30;0.30;;;19.40;57.50;;;;;;5056321;28;20166;-69
2022/04/16 06:17:01;;;;;;;0.30;0.30;;;19.30;57.70;;;;;;5054837;28;20410;-69
2022/04/16 06:19:26;;;;;;;0.30;0.30;;;18.80;57.80;;;;;;5055924;28;20412;-70
2022/04/16 06:21:52;;;;;;;0.30;0.30;;;18.40;58.50;;;;;;5055646;28;20413;-69
2022/04/16 06:24:18;;;;;;;0.30;0.30;;;17.30;59.30;;;;;;5055881;28;20174;-69
2022/04/16 06:26:45;;;;;;;0.50;0.43;;;16.50;62.70;;;;;;5055890;28;20173;-68
2022/04/16 06:29:11;;;;;;;0.70;0.70;;;16.00;63.90;;;;;;5055596;28;20190;-69
2022/04/16 06:31:37;;;;;;;0.30;0.30;;;15.90;64.70;;;;;;5055659;28;20486;-69
2022/04/16 06:34:03;;;;;;;0.30;0.30;;;15.60;64.80;;;;;;5055804;28;20474;-68
2022/04/16 06:36:28;;;;;;;0.30;0.30;;;15.30;65.50;;;;;;5055796;28;20178;-69
2022/04/16 06:38:54;;;;;;;0.30;0.30;;;14.80;66.70;;;;;;5055718;28;20186;-69
2022/04/16 06:41:20;;;;;;;0.40;0.40;;;14.70;68.20;;;;;;5055549;28;20534;-69
2022/04/16 06:43:45;;;;;;;0.30;0.30;;;14.70;68.10;;;;;;5055628;28;20686;-69
2022/04/16 06:46:12;;;;;;;0.40;0.40;;;14.60;68.50;;;;;;5055643;28;20249;-69
2022/04/16 06:48:38;;;;;;;0.30;0.30;;;14.60;68.50;;;;;;5055496;28;20183;-70
2022/04/16 06:51:04;;;;;;;0.30;0.30;;;14.30;69.40;;;;;;5055068;28;20446;-69
2022/04/16 06:53:29;;;;;;;0.30;0.30;;;14.10;69.50;;;;;;5055304;28;20482;-69
2022/04/16 06:55:55;;;;;;;0.30;0.30;;;14.20;70.90;;;;;;5055292;28;20181;-68
2022/04/16 06:58:21;;;;;;;0.30;0.30;;;14.50;71.90;;;;;;5054517;28;20202;-69
2022/04/16 07:00:46;;;;;;;0.30;0.30;;;14.80;69.80;;;;;;5055066;28;20212;-69
2022/04/16 07:03:13;;;;;;;0.60;0.50;;;15.20;67.90;;;;;;5055032;28;20174;-69
2022/04/16 07:05:39;;;;;;;0.30;0.30;;;16.00;67.20;;;;;;5055285;28;20568;-69
2022/04/16 07:08:05;;;;;;;0.60;0.60;;;17.00;64.10;;;;;;5054945;28;20497;-69
2022/04/16 07:10:30;;;;;;;0.30;0.30;;;18.30;61.80;;;;;;5054879;28;20556;-69
2022/04/16 07:12:56;;;;;;;0.30;0.30;;;19.80;56.80;;;;;;5055157;28;20163;-69
2022/04/16 07:15:22;;;;;;;0.30;0.30;;;21.60;55.60;;;;;;5055043;28;20166;-70
2022/04/16 07:17:47;;;;;;;0.30;0.30;;;22.90;50.70;;;;;;5054762;28;20295;-70
2022/04/16 07:20:13;;;;;;;0.40;0.40;;;23.30;49.50;;;;;;5054809;28;20170;-69
2022/04/16 07:22:39;;;;;;;4.97;1.20;;;23.80;47.30;;;;;;5054713;28;20251;-69
2022/04/16 07:25:07;;;;;;;0.50;0.50;;;24.10;46.50;;;;;;5054762;28;20170;-70
2022/04/16 07:27:33;;;;;;;0.30;0.30;;;24.10;44.90;;;;;;5054711;28;20264;-70
2022/04/16 07:29:59;;;;;;;0.30;0.30;;;24.30;44.60;;;;;;5054381;28;21008;-69
2022/04/16 07:32:28;;;;;;;0.30;0.30;;;25.00;43.60;;;;;;5054719;28;20207;-70
2022/04/16 07:34:54;;;;;;;0.43;0.43;;;25.40;41.70;;;;;;5053301;28;20420;-69
2022/04/16 07:37:20;;;;;;;0.67;0.67;;;25.30;40.70;;;;;;5054388;28;20766;-70
2022/04/16 07:39:45;;;;;;;0.50;0.50;;;25.50;42.30;;;;;;5054234;28;20408;-70
2022/04/16 07:42:11;;;;;;;0.30;0.30;;;25.30;40.80;;;;;;5054543;28;20240;-70
2022/04/16 07:44:37;;;;;;;0.60;0.60;;;25.60;40.80;;;;;;5053287;28;20189;-70
2022/04/16 07:47:03;;;;;;;0.83;0.83;;;26.20;40.40;;;;;;5054299;28;20174;-71
2022/04/16 07:49:28;;;;;;;0.30;0.30;;;26.30;40.40;;;;;;5054360;28;20202;-70
2022/04/16 07:51:54;;;;;;;0.30;0.30;;;26.70;38.30;;;;;;5053992;28;20873;-70
2022/04/16 07:54:20;;;;;;;0.30;0.30;;;26.40;39.20;;;;;;5054401;28;20252;-70
2022/04/16 07:56:45;;;;;;;0.50;0.50;;;26.10;39.10;;;;;;5054053;28;20196;-70
2022/04/16 07:59:12;;;;;;;0.40;0.40;;;26.50;38.90;;;;;;5053919;28;20190;-70
2022/04/16 08:01:38;;;;;;;0.30;0.30;;;27.00;38.10;;;;;;5053694;28;20304;-70
2022/04/16 08:04:04;;;;;;;0.80;0.80;;;26.50;38.10;;;;;;5053964;28;20401;-70
2022/04/16 08:06:30;;;;;;;0.63;0.63;;;26.90;38.80;;;;;;5053838;28;20434;-70
2022/04/16 08:09:01;;;;;;;0.40;0.40;;;27.40;37.40;;;;;;5053698;28;20511;-70
2022/04/16 08:11:31;;;;;;;0.40;0.40;;;27.70;36.40;;;;;;5053901;28;20187;-70
2022/04/16 08:13:57;;;;;;;0.70;0.70;;;27.60;36.20;;;;;;5053883;28;20393;-70
2022/04/16 08:16:23;;;;;;;0.40;0.40;;;26.90;35.50;;;;;;5053672;28;20415;-69
2022/04/16 08:18:48;;;;;;;0.30;0.30;;;25.70;37.10;;;;;;5052323;28;20949;-70
2022/04/16 08:21:14;;;;;;;0.40;0.40;;;25.60;37.90;;;;;;5053602;28;20658;-70
2022/04/16 08:23:55;;;;;;;0.50;0.50;;;25.50;38.10;;;;;;5053946;28;20658;-69
2022/04/16 08:26:25;;;;;;;0.50;0.40;;;25.00;39.40;;;;;;5053880;28;20162;-69
2022/04/16 08:28:51;;;;;;;0.30;0.30;;;25.90;37.80;;;;;;5052259;28;20432;-70
2022/04/16 08:31:17;;;;;;;0.37;0.37;;;26.50;36.80;;;;;;5053352;28;20448;-70
2022/04/16 08:33:42;;;;;;;0.40;0.40;;;26.20;36.00;;;;;;5053633;28;20916;-70
2022/04/16 08:36:08;;;;;;;0.30;0.30;;;26.30;37.20;;;;;;5053677;28;20166;-70
2022/04/16 08:38:34;;;;;;;0.70;0.70;;;26.60;36.00;;;;;;5053676;28;20225;-70
2022/04/16 08:41:01;;;;;;;0.80;0.40;;;26.50;36.10;;;;;;5053270;28;20197;-70
2022/04/16 08:43:28;;;;;;;0.30;0.30;;;26.50;35.70;;;;;;5053426;28;20170;-70
2022/04/16 08:45:55;;;;;;;0.60;0.60;;;27.30;35.80;;;;;;5053317;28;20409;-70
2022/04/16 08:48:21;;;;;;;0.30;0.30;;;27.20;34.90;;;;;;5053427;28;20494;-70
2022/04/16 08:50:48;;;;;;;0.30;0.30;;;27.30;35.90;;;;;;5053155;28;20460;-70
2022/04/16 08:53:15;;;;;;;0.30;0.30;;;27.50;34.00;;;;;;5052222;28;20574;-70
2022/04/16 08:55:41;;;;;;;0.53;0.53;;;27.30;34.20;;;;;;5053450;28;20496;-70
2022/04/16 08:58:06;;;;;;;0.73;0.50;;;26.70;34.70;;;;;;5053472;28;20507;-70
2022/04/16 09:00:32;;;;;;;1.80;1.70;;;26.90;35.90;;;;;;5053313;28;20170;-70
2022/04/16 09:03:03;;;;;;;0.53;0.53;;;26.70;34.60;;;;;;5053255;28;20223;-71
2022/04/16 09:05:29;;;;;;;0.53;0.53;;;26.20;35.00;;;;;;5053518;28;20416;-70
2022/04/16 09:07:57;;;;;;;0.47;0.47;;;26.20;35.40;;;;;;5053221;28;20424;-70
2022/04/16 09:10:29;;;;;;;0.30;0.30;;;26.40;35.90;;;;;;5053156;28;20190;-70
2022/04/16 09:13:01;;;;;;;1.00;1.00;;;26.00;35.40;;;;;;5053073;28;20447;-69
2022/04/16 09:15:28;;;;;;;0.47;0.47;;;25.70;35.80;;;;;;5053190;28;20427;-70
2022/04/16 09:18:02;;;;;;;0.40;0.40;;;26.40;36.40;;;;;;5051855;28;20828;-69
2022/04/16 09:20:35;;;;;;;0.30;0.30;;;26.90;35.30;;;;;;5054177;28;20408;-70
2022/04/16 09:23:13;;;;;;;0.30;0.30;;;26.20;35.60;;;;;;5056995;28;20838;-70
2022/04/16 09:25:42;;;;;;;0.30;0.30;;;26.40;35.00;;;;;;5057292;28;20411;-69
2022/04/16 09:28:08;;;;;;;0.30;0.30;;;26.10;35.20;;;;;;5056864;28;20424;-70
2022/04/16 09:30:34;;;;;;;0.30;0.30;;;25.60;36.40;;;;;;5056704;28;20563;-70
2022/04/16 09:33:01;;;;;;;0.60;0.60;;;25.50;36.50;;;;;;5056845;28;20450;-69
2022/04/16 09:35:28;;;;;;;0.80;0.80;;;24.80;35.70;;;;;;5056970;28;20860;-70
2022/04/16 09:37:55;;;;;;;0.30;0.30;;;24.70;37.60;;;;;;5056692;28;20482;-70
2022/04/16 09:40:23;;;;;;;1.07;1.07;;;24.30;37.20;;;;;;5056790;28;20420;-70
2022/04/16 09:42:56;;;;;;;0.73;0.73;;;24.60;37.90;;;;;;5056809;28;20426;-70
2022/04/16 09:45:21;;;;;;;0.30;0.30;;;24.40;36.90;;;;;;5056921;28;20403;-69
2022/04/16 09:47:49;;;;;;;4.00;1.03;;;24.20;38.70;;;;;;5056768;28;20994;-69
2022/04/16 09:50:18;;;;;;;0.30;0.30;;;24.30;38.60;;;;;;5056389;28;20288;-69
2022/04/16 09:52:46;;;;;;;0.30;0.30;;;24.20;37.40;;;;;;5056580;28;20397;-69
2022/04/16 09:55:12;;;;;;;0.47;0.47;;;23.10;39.50;;;;;;5055268;28;20899;-69
2022/04/16 09:57:40;;;;;;;0.30;0.30;;;22.80;39.80;;;;;;5056413;28;20512;-70
2022/04/16 10:00:06;;;;;;;0.87;0.87;;;22.20;39.50;;;;;;5056283;28;20469;-69
2022/04/16 10:02:34;;;;;;;0.30;0.30;;;22.10;41.40;;;;;;5056509;28;20427;-69
2022/04/16 10:05:00;;;;;;;0.30;0.30;;;22.40;40.70;;;;;;5056367;28;20507;-69
2022/04/16 10:07:27;;;;;;;1.43;1.33;;;22.70;40.00;;;;;;5056306;28;20403;-69
2022/04/16 10:09:53;;;;;;;0.30;0.30;;;22.20;39.90;;;;;;5055970;28;20455;-70
2022/04/16 10:15:02;;;;;;;0.30;0.30;;;21.50;42.40;;;;;;5056123;28;20406;-70
2022/04/16 10:17:35;;;;;;;1.37;0.70;;;21.50;43.40;;;;;;5055944;28;20790;-69
2022/04/16 10:20:09;;;;;;;0.40;0.40;;;20.80;42.20;;;;;;5055754;28;20416;-70
2022/04/16 10:22:36;;;;;;;0.30;0.30;;;20.80;41.80;;;;;;5056097;28;20441;-69
2022/04/16 10:25:02;;;;;;;0.50;0.50;;;19.90;41.40;;;;;;5056047;28;20911;-69
2022/04/16 10:27:31;;;;;;;0.30;0.30;;;19.70;41.50;;;;;;5054662;28;20523;-69
2022/04/16 10:30:08;;;;;;;0.60;0.53;;;19.70;43.40;;;;;;5054323;28;20975;-69
2022/04/16 10:32:42;;;;;;;0.30;0.30;;;19.80;43.10;;;;;;5054664;28;20399;-69
2022/04/16 10:35:17;;;;;;;0.30;0.30;;;20.00;42.10;;;;;;5055822;28;20765;-69
2022/04/16 10:37:48;;;;;;;0.50;0.50;;;20.30;43.00;;;;;;5055693;28;20420;-69
2022/04/16 10:40:18;;;;;;;0.30;0.30;;;20.20;42.00;;;;;;5054241;28;20925;-69
2022/04/16 10:42:48;;;;;;;0.30;0.30;;;20.40;41.80;;;;;;5055641;28;20416;-69
2022/04/16 10:45:14;;;;;;;0.30;0.30;;;20.80;41.00;;;;;;5055632;28;20413;-69
2022/04/16 10:47:41;;;;;;;0.30;0.30;;;20.70;41.10;;;;;;5055597;28;20963;-68
2022/04/16 10:50:20;;;;;;;0.87;0.87;;;20.70;40.00;;;;;;5055232;28;20452;-69
2022/04/16 10:52:56;;;;;;;0.30;0.30;;;20.40;40.50;;;;;;5055589;28;20793;-70
2022/04/16 10:55:36;;;;;;;0.30;0.30;;;19.80;41.00;;;;;;5055773;28;20400;-69
2022/04/16 10:58:06;;;;;;;0.30;0.30;;;19.70;41.10;;;;;;5055352;28;20510;-69
2022/04/16 11:00:36;;;;;;;0.30;0.30;;;18.60;41.50;;;;;;5055038;28;20969;-70
2022/04/16 11:03:11;;;;;;;0.30;0.30;;;17.80;44.90;;;;;;5055348;28;20431;-69
2022/04/16 11:05:37;;;;;;;0.30;0.30;;;17.40;43.10;;;;;;5053885;28;20412;-68
2022/04/16 11:08:07;;;;;;;0.30;0.30;;;17.20;44.00;;;;;;5055146;28;20424;-69
2022/04/16 11:10:33;;;;;;;1.37;1.17;;;16.90;43.70;;;;;;5055144;28;20453;-69
2022/04/16 11:13:01;;;;;;;0.37;0.37;;;16.70;43.30;;;;;;5055118;28;20915;-69
2022/04/16 11:15:27;;;;;;;0.30;0.30;;;16.10;44.10;;;;;;5055083;28;20401;-69
2022/04/16 11:18:03;;;;;;;0.30;0.30;;;16.30;44.00;;;;;;5054918;28;20867;-69
2022/04/16 11:20:29;;;;;;;0.30;0.30;;;16.50;43.30;;;;;;5054714;28;20450;-69
2022/04/16 11:22:56;;;;;;;0.40;0.40;;;16.50;43.40;;;;;;5054875;28;20432;-69
2022/04/16 11:25:25;;;;;;;0.40;0.40;;;16.50;42.80;;;;;;5054967;28;20444;-70
2022/04/16 11:36:09;;;;;;;0.30;0.30;;;16.00;45.10;;;;;;5054641;28;20464;-69
2022/04/16 11:38:40;;;;;;;0.40;0.40;;;15.70;47.50;;;;;;5054742;28;20422;-69
2022/04/16 11:41:11;;;;;;;0.30;0.30;;;16.00;46.70;;;;;;5054345;28;20407;-69
2022/04/16 11:43:46;;;;;;;0.30;0.30;;;16.40;46.20;;;;;;5054444;28;20416;-69
2022/04/16 11:46:13;;;;;;;0.30;0.30;;;16.30;43.80;;;;;;5054563;28;20453;-69
2022/04/16 11:48:49;;;;;;;0.30;0.30;;;16.10;44.50;;;;;;5054508;28;20428;-69
2022/04/16 11:51:16;;;;;;;0.30;0.30;;;16.30;44.50;;;;;;5054105;28;20964;-69
2022/04/16 11:53:47;;;;;;;0.30;0.30;;;16.40;44.60;;;;;;5054302;28;20424;-69
2022/04/16 11:56:18;;;;;;;0.30;0.30;;;16.20;46.00;;;;;;5054456;28;20395;-69
2022/04/16 11:58:49;;;;;;;0.30;0.30;;;15.60;45.70;;;;;;5054345;28;20424;-68
2022/04/16 12:01:22;;;;;;;0.30;0.30;;;15.30;47.00;;;;;;5053997;28;20427;-69
2022/04/16 12:03:48;;;;;;;0.30;0.30;;;15.30;47.70;;;;;;5054315;28;20458;-69
2022/04/16 12:06:15;;;;;;;0.30;0.30;;;15.20;46.30;;;;;;5054067;28;20493;-69
2022/04/16 12:08:45;;;;;;;0.30;0.30;;;15.20;46.90;;;;;;5053871;28;20434;-69
2022/04/16 12:11:11;;;;;;;0.30;0.30;;;15.50;47.30;;;;;;5053654;28;20571;-68
2022/04/16 12:13:39;;;;;;;1.23;1.23;;;15.70;45.70;;;;;;5054054;28;20868;-69
2022/04/16 12:16:08;;;;;;;0.30;0.30;;;16.10;45.10;;;;;;5053792;28;20175;-69
2022/04/16 12:18:37;;;;;;;0.30;0.30;;;16.30;47.80;;;;;;5054052;28;20429;-69
2022/04/16 12:21:13;;;;;;;0.83;0.83;;;16.70;45.10;;;;;;5053711;28;20405;-69
2022/04/16 12:23:40;;;;;;;0.30;0.30;;;16.60;43.30;;;;;;5053937;28;20762;-69
2022/04/16 12:26:14;;;;;;;0.30;0.30;;;16.30;44.20;;;;;;5053541;28;20549;-69
2022/04/16 12:28:46;;;;;;;0.30;0.30;;;16.20;43.10;;;;;;5053494;28;20424;-68
2022/04/16 12:31:12;;;;;;;0.30;0.30;;;16.30;44.50;;;;;;5053566;28;20447;-70
2022/04/16 12:33:37;;;;;;;0.30;0.30;;;16.20;45.00;;;;;;5053731;28;20405;-69
2022/04/16 12:36:05;;;;;;;0.30;0.30;;;15.90;45.00;;;;;;5053679;28;20400;-68
2022/04/16 12:38:30;;;;;;;0.30;0.30;;;15.70;45.40;;;;;;5053383;28;20275;-68
2022/04/16 12:41:10;;;;;;;0.30;0.30;;;15.30;45.10;;;;;;5053530;28;20883;-68
2022/04/16 12:43:39;;;;;;;0.30;0.30;;;15.10;45.30;;;;;;5052279;28;20259;-68
2022/04/16 12:46:05;;;;;;;0.30;0.30;;;15.00;46.00;;;;;;5052213;28;20445;-70
2022/04/16 12:48:31;;;;;;;0.30;0.30;;;15.40;45.40;;;;;;5053352;28;20482;-69
2022/04/16 12:50:57;;;;;;;0.30;0.30;;;15.50;44.70;;;;;;5053234;28;20964;-70
2022/04/16 12:53:24;;;;;;;0.30;0.30;;;15.50;43.40;;;;;;5053489;28;20397;-69
2022/04/16 12:55:50;;;;;;;0.30;0.30;;;15.20;45.50;;;;;;5052600;28;20411;-69
2022/04/16 12:58:16;;;;;;;0.40;0.40;;;15.30;46.60;;;;;;5053200;28;20507;-69
2022/04/16 13:00:42;;;;;;;0.30;0.30;;;15.90;48.70;;;;;;5053102;28;20548;-69
2022/04/16 13:03:08;;;;;;;0.30;0.30;;;16.30;45.10;;;;;;5053570;28;20166;-69
2022/04/16 13:05:33;;;;;;;0.40;0.40;;;16.70;44.00;;;;;;5053483;28;20897;-68
2022/04/16 13:08:00;;;;;;;0.30;0.30;;;16.60;43.40;;;;;;5053284;28;20194;-69
2022/04/16 13:10:26;;;;;;;0.30;0.30;;;16.60;43.40;;;;;;5053236;28;20201;-69
2022/04/16 13:12:52;;;;;;;0.60;0.60;;;16.50;42.90;;;;;;5053218;28;20480;-69
2022/04/16 13:15:19;;;;;;;0.30;0.30;;;16.30;43.80;;;;;;5053349;28;20404;-70